Map

Track Data

SID SEASON NUMBER BASIN SUBBASIN NAME ISO_TIME NATURE LAT LON WMO_WIND WMO_PRES WMO_AGENCY TRACK_TYPE DIST2LAND LANDFALL IFLAG USA_AGENCY USA_ATCF_ID USA_LAT USA_LON USA_RECORD USA_STATUS USA_WIND USA_PRES USA_SSHS USA_R34_NE USA_R34_SE USA_R34_SW USA_R34_NW USA_R50_NE USA_R50_SE USA_R50_SW USA_R50_NW USA_R64_NE USA_R64_SE USA_R64_SW USA_R64_NW USA_POCI USA_ROCI USA_RMW USA_EYE TOKYO_LAT TOKYO_LON TOKYO_GRADE TOKYO_WIND TOKYO_PRES TOKYO_R50_DIR TOKYO_R50_LONG TOKYO_R50_SHORT TOKYO_R30_DIR TOKYO_R30_LONG TOKYO_R30_SHORT TOKYO_LAND CMA_LAT CMA_LON CMA_CAT CMA_WIND CMA_PRES HKO_LAT HKO_LON HKO_CAT HKO_WIND HKO_PRES NEWDELHI_LAT NEWDELHI_LON NEWDELHI_GRADE NEWDELHI_WIND NEWDELHI_PRES NEWDELHI_CI NEWDELHI_DP NEWDELHI_POCI REUNION_LAT REUNION_LON REUNION_TYPE REUNION_WIND REUNION_PRES REUNION_TNUM REUNION_CI REUNION_RMW REUNION_R34_NE REUNION_R34_SE REUNION_R34_SW REUNION_R34_NW REUNION_R50_NE REUNION_R50_SE REUNION_R50_SW REUNION_R50_NW REUNION_R64_NE REUNION_R64_SE REUNION_R64_SW REUNION_R64_NW BOM_LAT BOM_LON BOM_TYPE BOM_WIND BOM_PRES BOM_TNUM BOM_CI BOM_RMW BOM_R34_NE BOM_R34_SE BOM_R34_SW BOM_R34_NW BOM_R50_NE BOM_R50_SE BOM_R50_SW BOM_R50_NW BOM_R64_NE BOM_R64_SE BOM_R64_SW BOM_R64_NW BOM_ROCI BOM_POCI BOM_EYE BOM_POS_METHOD BOM_PRES_METHOD NADI_LAT NADI_LON NADI_CAT NADI_WIND NADI_PRES WELLINGTON_LAT WELLINGTON_LON WELLINGTON_WIND WELLINGTON_PRES DS824_LAT DS824_LON DS824_STAGE DS824_WIND DS824_PRES TD9636_LAT TD9636_LON TD9636_STAGE TD9636_WIND TD9636_PRES TD9635_LAT TD9635_LON TD9635_WIND TD9635_PRES TD9635_ROCI NEUMANN_LAT NEUMANN_LON NEUMANN_CLASS NEUMANN_WIND NEUMANN_PRES MLC_LAT MLC_LON MLC_CLASS MLC_WIND MLC_PRES USA_GUST BOM_GUST BOM_GUST_PER REUNION_GUST REUNION_GUST_PER USA_SEAHGT USA_SEARAD_NE USA_SEARAD_SE USA_SEARAD_SW USA_SEARAD_NW STORM_SPEED STORM_DIR
1999193N16269 1999 43 EP MM NOT_NAMED 1999-07-12 00:00:00 NR 16.2000 -91.1000 main 0 0 O_____________ jtwc_ep EP031999 16.2000 -91.1000 20 -1 11 281
1999193N16269 1999 43 EP MM NOT_NAMED 1999-07-12 03:00:00 NR 16.3001 -91.6577 main 0 0 P_____________ EP031999 16.3001 -91.6577 20 -1 12 280
1999193N16269 1999 43 EP MM NOT_NAMED 1999-07-12 06:00:00 NR 16.4000 -92.3000 main 0 0 O_____________ jtwc_ep EP031999 16.4000 -92.3000 20 -1 14 277
1999193N16269 1999 43 EP MM NOT_NAMED 1999-07-12 09:00:00 NR 16.4751 -93.0770 main 0 0 P_____________ EP031999 16.4751 -93.0770 20 -1 15 270
1999193N16269 1999 43 EP MM NOT_NAMED 1999-07-12 12:00:00 NR 16.4000 -93.9000 main 0 0 O_____________ jtwc_ep EP031999 16.4000 -93.9000 20 -1 16 253
1999193N16269 1999 43 EP MM NOT_NAMED 1999-07-12 15:00:00 NR 16.0293 -94.6281 main 22 22 P_____________ EP031999 16.0293 -94.6281 22 -1 17 241
1999193N16269 1999 43 EP MM NOT_NAMED 1999-07-12 18:00:00 NR 15.6000 -95.4000 main 44 33 O_____________ jtwc_ep EP031999 15.6000 -95.4000 25 -1 18 247
1999193N16269 1999 43 EP MM NOT_NAMED 1999-07-12 21:00:00 NR 15.3401 -96.3275 main 44 33 P_____________ EP031999 15.3401 -96.3275 25 -1 19 258
1999193N16269 1999 43 EP MM NOT_NAMED 1999-07-13 00:00:00 NR 15.2000 -97.3000 main 74 74 O_____________ jtwc_ep EP031999 15.2000 -97.3000 25 -1 18 264
1999193N16269 1999 43 EP MM NOT_NAMED 1999-07-13 03:00:00 NR 15.1465 -98.1625 main 109 109 P_____________ EP031999 15.1465 -98.1625 25 -1 17 270
1999193N16269 1999 43 EP MM NOT_NAMED 1999-07-13 06:00:00 NR 15.2000 -99.1000 main 134 134 O_____________ jtwc_ep EP031999 15.2000 -99.1000 25 -1 20 275
1999193N16269 1999 43 EP MM NOT_NAMED 1999-07-13 09:00:00 NR 15.3124 -100.248 main 165 165 P_____________ EP031999 15.3124 -100.248 25 -1 23 277
1999193N16269 1999 43 EP MM NOT_NAMED 1999-07-13 12:00:00 NR 15.5000 -101.500 main 204 204 O_____________ jtwc_ep EP031999 15.5000 -101.500 25 -1 25 280
1999193N16269 1999 43 EP MM NOT_NAMED 1999-07-13 15:00:00 NR 15.7428 -102.802 main 251 243 P_____________ EP031999 15.7428 -102.802 25 -1 25 282
1999193N16269 1999 43 EP MM NOT_NAMED 1999-07-13 18:00:00 NR 16.0000 -104.000 main 260 260 O_____________ jtwc_ep EP031999 16.0000 -104.000 25 -1 21 283
1999193N16269 1999 43 EP MM NOT_NAMED 1999-07-13 21:00:00 NR 16.2063 -104.910 main 278 278 P_____________ EP031999 16.2063 -104.910 25 -1 17 284
1999193N16269 1999 43 EP MM NOT_NAMED 1999-07-14 00:00:00 NR 16.4000 -105.700 main 315 315 O_____________ jtwc_ep EP031999 16.4000 -105.700 25 -1 16 286
1999193N16269 1999 43 EP MM NOT_NAMED 1999-07-14 03:00:00 NR 16.6521 -106.542 main 332 332 P_____________ EP031999 16.5922 -106.558 27 -1 17 284
1999193N16269 1999 43 EP MM NOT_NAMED 1999-07-14 06:00:00 TS 16.8000 -107.400 30 hurdat_epa main 384 384 O_____________ hurdat_epa EP031999 16.8000 -107.400 TD 30 -1 17 278
1999193N16269 1999 43 EP MM NOT_NAMED 1999-07-14 09:00:00 TS 16.8729 -108.266 main 445 445 P_____________ EP031999 17.0498 -108.222 TD 30 -1 16 276
1999193N16269 1999 43 EP MM NOT_NAMED 1999-07-14 12:00:00 TS 16.9800 -109.080 30 hurdat_epa main 502 502 O_____________ hurdat_epa EP031999 17.3000 -109.000 TD 30 -1 15 281
1999193N16269 1999 43 EP MM NOT_NAMED 1999-07-14 15:00:00 TS 17.1521 -109.808 main 550 550 P_____________ EP031999 17.5147 -109.723 TD 30 -1 14 282
1999193N16269 1999 43 EP MM NOT_NAMED 1999-07-14 18:00:00 TS 17.2667 -110.500 30 hurdat_epa main 607 607 O_____________ hurdat_epa EP031999 17.7000 -110.400 TD 30 -1 13 281
1999193N16269 1999 43 EP MM NOT_NAMED 1999-07-14 21:00:00 TS 17.4014 -111.176 main 627 623 P_____________ EP031999 17.8872 -111.057 TD 30 -1 13 279
1999193N16269 1999 43 EP MM NOT_NAMED 1999-07-15 00:00:00 TS 17.4667 -111.833 30 hurdat_epa main 632 632 O_____________ hurdat_epa EP031999 18.0000 -111.700 TD 30 -1 13 270
1999193N16269 1999 43 EP MM NOT_NAMED 1999-07-15 03:00:00 TS 17.4025 -112.508 main 668 668 P_____________ EP031999 17.9874 -112.365 TD 27 -1 12 265
1999193N16269 1999 43 EP MM NOT_NAMED 1999-07-15 06:00:00 TS 17.3545 -113.109 25 hurdat_epa main 694 694 O_____________ hurdat_epa EP031999 17.9000 -113.000 TD 25 -1 11 266
1999193N16269 1999 43 EP MM NOT_NAMED 1999-07-15 09:00:00 TS 17.3253 -113.628 main 730 730 P_____________ EP031999 17.8073 -113.573 TD 25 -1 10 266
1999193N16269 1999 43 EP MM NOT_NAMED 1999-07-15 12:00:00 TS 17.2857 -114.114 25 hurdat_epa main 758 755 O_____________ hurdat_epa EP031999 17.7000 -114.100 TD 25 -1 10 286
1999193N16269 1999 43 EP MM NOT_NAMED 1999-07-15 15:00:00 TS 17.5978 -114.605 main 762 762 P_____________ EP031999 17.5978 -114.605 TD 22 -1 10 283
1999193N16269 1999 43 EP MM NOT_NAMED 1999-07-15 18:00:00 TS 17.5000 -115.100 20 hurdat_epa main 804 O_____________ hurdat_epa EP031999 17.5000 -115.100 TD 20 -1 10 258

About IBTrACS Database

This database is a web-friendly format of International Best Track Archive for Climate Stewardship (IBTrACS), a global best track data archive curated by NOAA dating back to 1842.

Updated: 2021-10-21